Airfield :
LOGIN :

Register | Disclaimer

   EN    FR    IT 

 










Legend :    VFR   Marginal VFR   IFR   Intensive IFR   Very Intensive IFR
Visi :
Ceiling :
>= 8 km
>= 3000ft
5 to 8 km
1000 to 3000 ft
1500m to 5 km
500 to 1000 ft
800 to 1500m
200 to 500 ft
< 800m
< 200 ft
Symbols :   Thunderstorms  Fog  Heavy snow  Heavy precipitations  Wind > 20 kt
SIGMETs :     Misc.  Thunderstorms  Icing  Turbulence  Mountain Waves  Volcanic Ashes






- Airport Elevation : 1400 ft


LSME - Luzern Emmen

CURRENT METAR :
  • 252120Z AUTO VRB01KT 9999NDV FEW048 SCT070 OVC091 12/12 Q1014 RMK

EXPIRED METARs :
  • 252050Z AUTO 21006KT 170V250 9999NDV FEW033 BKN064 OVC094 12/12 Q1014 RMK
  • 252020Z AUTO 23003KT 170V260 9999NDV BKN026 BKN031 OVC057 12/12 Q1014 RMK
  • 251950Z AUTO 24004KT 9999NDV FEW011 BKN029 OVC049 12/12 Q1014 RMK
  • 251920Z AUTO 23004KT 9999NDV SCT034 OVC048 12/12 Q1014 RMK
  • 251850Z AUTO VRB02KT 9999NDV -SHRA FEW034 OVC055 12/11 Q1014 RMK

Expired Forecast.



MET'MAP, your aeronautical weather chart ! - Copyright ORBIFLY December 2007 - Disclaimer

ORBIFLY MET'MAP TEAM :

Programming & Development : Alexandra Zaïnal
Original concept : Baudouin d'Aumeries
Technical & hardware support : Manuel Goepfert
Assistance : Marc-Olivier Méhu




SOURCES & CREDITS :

   NOAA